createdAt,value
2022-10-06T00:01:15.651Z,3.13
2022-10-06T00:03:45.928Z,3.47
2022-10-06T00:06:15.988Z,3.53
2022-10-06T00:08:44.589Z,3.50
2022-10-06T00:11:13.618Z,3.05
2022-10-06T00:13:41.829Z,4.00
2022-10-06T00:16:14.355Z,3.08
2022-10-06T00:18:42.099Z,3.65
2022-10-06T00:21:11.749Z,3.42
2022-10-06T00:23:39.508Z,4.00
2022-10-06T00:26:12.466Z,4.82
2022-10-06T00:28:40.245Z,3.80
2022-10-06T00:31:08.090Z,4.30
2022-10-06T00:33:37.228Z,3.35
2022-10-06T00:36:05.830Z,3.45
2022-10-06T00:38:35.249Z,3.53
2022-10-06T00:41:02.972Z,3.90
2022-10-06T00:43:49.406Z,5.05
2022-10-06T00:46:22.915Z,3.63
2022-10-06T00:48:54.714Z,4.10
2022-10-06T00:51:23.778Z,4.10
2022-10-06T00:53:53.108Z,3.40
2022-10-06T00:56:20.944Z,4.55
2022-10-06T00:58:50.239Z,4.07
2022-10-06T01:01:18.481Z,4.40
2022-10-06T01:03:50.668Z,4.80
2022-10-06T01:08:47.068Z,4.35
2022-10-06T01:11:16.311Z,4.18
2022-10-06T01:13:46.383Z,4.53
2022-10-06T01:16:20.105Z,4.65
2022-10-06T01:18:49.535Z,4.35
2022-10-06T01:21:27.839Z,5.07
2022-10-06T01:23:57.322Z,4.38
2022-10-06T01:26:26.214Z,4.82
2022-10-06T01:28:54.093Z,5.07
2022-10-06T01:31:22.298Z,4.40
2022-10-06T01:33:52.932Z,4.65
2022-10-06T01:36:21.017Z,4.40
2022-10-06T01:38:48.807Z,4.88
2022-10-06T01:41:19.958Z,5.25
2022-10-06T01:43:47.693Z,5.03
2022-10-06T01:46:15.505Z,5.60
2022-10-06T01:48:43.370Z,5.60
2022-10-06T01:51:14.659Z,5.72
2022-10-06T01:53:42.348Z,5.70
2022-10-06T01:56:22.649Z,5.95
2022-10-06T01:58:51.710Z,5.00
2022-10-06T02:01:19.530Z,5.65
2022-10-06T02:03:47.246Z,5.07
2022-10-06T02:06:14.988Z,5.85
2022-10-06T02:08:42.727Z,5.53
2022-10-06T02:11:12.187Z,6.78
2022-10-06T02:13:40.667Z,5.95
2022-10-06T02:16:12.410Z,6.53
2022-10-06T02:18:40.556Z,5.90
2022-10-06T02:21:14.357Z,5.20
2022-10-06T02:23:42.104Z,6.43
2022-10-06T02:26:09.842Z,5.88
2022-10-06T02:28:37.615Z,6.47
2022-10-06T02:31:07.399Z,6.05
2022-10-06T02:33:37.727Z,6.25
2022-10-06T02:36:06.624Z,7.22
2022-10-06T02:38:34.731Z,7.05
2022-10-06T02:41:03.324Z,8.05
2022-10-06T02:43:31.396Z,6.15
2022-10-06T02:46:01.273Z,6.75
2022-10-06T02:48:30.699Z,5.68
2022-10-06T02:51:01.249Z,5.97
2022-10-06T02:53:30.423Z,5.22
2022-10-06T02:56:01.831Z,5.57
2022-10-06T02:58:31.328Z,5.85
2022-10-06T03:01:02.732Z,5.70
2022-10-06T03:03:31.295Z,7.65
2022-10-06T03:06:05.261Z,6.47
2022-10-06T03:08:33.576Z,6.88
2022-10-06T03:11:02.534Z,7.57
2022-10-06T03:13:31.278Z,6.60
2022-10-06T03:15:59.327Z,7.43
2022-10-06T03:18:27.244Z,5.53
2022-10-06T03:20:55.389Z,6.53
2022-10-06T03:23:24.436Z,6.35
2022-10-06T03:25:58.483Z,6.35
2022-10-06T03:28:26.491Z,7.70
2022-10-06T03:30:55.091Z,6.95
2022-10-06T03:33:22.798Z,8.10
2022-10-06T03:35:59.752Z,7.10
2022-10-06T03:38:29.263Z,8.65
2022-10-06T03:41:03.698Z,7.70
2022-10-06T03:43:31.413Z,6.88
2022-10-06T03:46:00.863Z,6.40
2022-10-06T03:48:29.179Z,6.95
2022-10-06T03:50:58.506Z,7.57
2022-10-06T03:53:29.730Z,7.45
2022-10-06T03:56:01.471Z,7.43
2022-10-06T03:58:29.544Z,7.03
2022-10-06T04:01:01.887Z,7.97
2022-10-06T04:05:58.770Z,7.60
2022-10-06T04:08:28.353Z,8.55
2022-10-06T04:10:56.543Z,8.15
2022-10-06T04:13:24.248Z,8.15
2022-10-06T04:15:51.895Z,7.70
2022-10-06T04:18:19.631Z,7.72
2022-10-06T04:20:47.340Z,7.70
2022-10-06T04:23:16.167Z,8.60
2022-10-06T04:25:45.213Z,8.13
2022-10-06T04:28:12.964Z,8.05
2022-10-06T04:30:40.694Z,7.78
2022-10-06T04:33:08.428Z,8.73
2022-10-06T04:35:36.036Z,7.82
2022-10-06T04:38:03.701Z,8.38
2022-10-06T04:40:31.401Z,7.25
2022-10-06T04:43:00.470Z,9.65
2022-10-06T04:45:28.347Z,9.73
2022-10-06T04:47:56.028Z,9.50
2022-10-06T04:50:23.991Z,8.50
2022-10-06T04:52:52.292Z,9.13
2022-10-06T04:55:20.009Z,8.32
2022-10-06T04:57:47.715Z,7.72
2022-10-06T05:00:26.735Z,8.32
2022-10-06T05:02:55.852Z,7.93
2022-10-06T05:05:23.600Z,8.73
2022-10-06T05:07:51.412Z,8.07
2022-10-06T05:10:19.140Z,7.38
2022-10-06T05:12:46.782Z,7.10
2022-10-06T05:15:16.648Z,7.03
2022-10-06T05:17:44.378Z,7.30
2022-10-06T05:20:12.093Z,6.60
2022-10-06T05:22:39.760Z,7.70
2022-10-06T05:25:07.932Z,7.15
2022-10-06T05:27:35.619Z,7.00
2022-10-06T05:30:03.301Z,8.23
2022-10-06T05:32:35.899Z,8.75
2022-10-06T05:35:04.527Z,8.13
2022-10-06T05:37:32.238Z,8.52
2022-10-06T05:40:00.053Z,7.80
2022-10-06T05:42:29.809Z,10.68
2022-10-06T05:44:57.679Z,13.15
2022-10-06T05:47:25.388Z,12.52
2022-10-06T05:49:54.492Z,12.07
2022-10-06T05:52:22.285Z,10.52
2022-10-06T05:54:50.661Z,10.93
2022-10-06T05:57:18.367Z,10.02
2022-10-06T05:59:46.046Z,9.38
2022-10-06T06:02:13.829Z,9.32
2022-10-06T06:04:41.589Z,7.63
2022-10-06T06:07:10.718Z,7.28
2022-10-06T06:09:38.409Z,7.07
2022-10-06T06:12:06.242Z,6.70
2022-10-06T06:14:50.651Z,6.32
2022-10-06T06:17:18.378Z,5.75
2022-10-06T06:19:46.051Z,6.53
2022-10-06T06:22:15.099Z,6.00
2022-10-06T06:24:42.754Z,6.30
2022-10-06T06:27:10.453Z,5.78
2022-10-06T06:29:40.061Z,6.80
2022-10-06T06:32:08.267Z,6.47
2022-10-06T06:34:35.957Z,6.80
2022-10-06T06:37:06.914Z,7.95
2022-10-06T06:39:38.573Z,6.50
2022-10-06T06:42:08.561Z,5.30
2022-10-06T06:44:36.245Z,5.10
2022-10-06T06:47:03.970Z,5.38
2022-10-06T06:49:31.635Z,3.75
2022-10-06T06:51:59.340Z,4.57
2022-10-06T06:54:27.645Z,4.18
2022-10-06T06:56:56.750Z,4.20
2022-10-06T06:59:25.208Z,4.65
2022-10-06T07:01:53.097Z,3.80
2022-10-06T07:04:21.027Z,3.40
2022-10-06T07:06:53.198Z,3.28
2022-10-06T07:11:50.137Z,3.80
2022-10-06T07:14:22.454Z,4.03
2022-10-06T07:17:07.498Z,3.88
2022-10-06T07:19:52.718Z,2.95
2022-10-06T07:22:41.083Z,3.20
2022-10-06T07:25:15.007Z,3.25
2022-10-06T07:27:44.335Z,3.60
2022-10-06T07:30:17.925Z,3.83
2022-10-06T07:32:46.099Z,3.95
2022-10-06T07:35:16.566Z,3.97
2022-10-06T07:37:44.300Z,3.38
2022-10-06T07:40:13.088Z,4.00
2022-10-06T07:42:52.308Z,4.40
2022-10-06T07:45:41.021Z,3.88
2022-10-06T07:48:11.821Z,3.90
2022-10-06T07:50:40.346Z,3.33
2022-10-06T07:53:08.847Z,3.35
2022-10-06T07:55:39.915Z,3.60
2022-10-06T07:58:11.582Z,3.60
2022-10-06T08:00:40.679Z,3.85
2022-10-06T08:03:09.382Z,3.58
2022-10-06T08:05:39.092Z,4.03
2022-10-06T08:08:07.012Z,3.80
2022-10-06T08:10:34.718Z,4.25
2022-10-06T08:13:06.244Z,3.72
2022-10-06T08:15:33.930Z,3.58
2022-10-06T08:18:12.169Z,3.60
2022-10-06T08:20:49.415Z,4.90
2022-10-06T08:23:17.152Z,3.15
2022-10-06T08:25:51.043Z,4.45
2022-10-06T08:28:19.075Z,3.55
2022-10-06T08:30:47.299Z,4.07
2022-10-06T08:33:18.183Z,6.20
2022-10-06T08:35:48.859Z,6.43
2022-10-06T08:38:16.526Z,3.88
2022-10-06T08:40:45.806Z,4.00
2022-10-06T08:43:18.706Z,3.40
2022-10-06T08:45:48.629Z,4.10
2022-10-06T08:48:19.805Z,4.18
2022-10-06T08:50:59.648Z,3.92
2022-10-06T08:53:35.600Z,4.05
2022-10-06T08:56:12.552Z,4.45
2022-10-06T08:58:52.831Z,4.55
2022-10-06T09:01:23.459Z,4.65
2022-10-06T09:03:54.882Z,4.68
2022-10-06T09:06:51.229Z,4.55
2022-10-06T09:09:28.463Z,4.32
2022-10-06T09:12:06.844Z,4.90
2022-10-06T09:14:41.129Z,4.88
2022-10-06T09:17:14.162Z,4.90
2022-10-06T09:19:47.434Z,4.28
2022-10-06T09:22:20.428Z,4.05
2022-10-06T09:24:50.899Z,3.95
2022-10-06T09:27:21.998Z,4.20
2022-10-06T09:29:50.636Z,4.90
2022-10-06T09:32:19.697Z,4.13
2022-10-06T09:34:51.841Z,4.78
2022-10-06T09:37:20.121Z,4.38
2022-10-06T09:39:50.833Z,4.25
2022-10-06T09:42:22.718Z,4.40
2022-10-06T09:44:58.149Z,3.97
2022-10-06T09:47:36.454Z,4.20
2022-10-06T09:50:23.457Z,4.05
2022-10-06T09:53:12.038Z,3.00
2022-10-06T09:55:46.524Z,3.63
2022-10-06T09:58:21.438Z,3.03
2022-10-06T10:00:53.897Z,3.28
2022-10-06T10:03:22.614Z,2.85
2022-10-06T10:05:54.802Z,3.15
2022-10-06T10:08:25.083Z,3.20
2022-10-06T10:11:33.166Z,3.28
2022-10-06T10:14:01.277Z,3.50
2022-10-06T10:16:34.638Z,3.80
2022-10-06T10:19:05.628Z,2.88
2022-10-06T10:21:37.085Z,3.80
2022-10-06T10:24:15.807Z,4.28
2022-10-06T10:26:53.713Z,4.30
2022-10-06T10:29:41.850Z,4.28
2022-10-06T10:32:15.485Z,4.70
2022-10-06T10:35:00.167Z,4.40
2022-10-06T10:37:36.108Z,4.00
2022-10-06T10:40:13.013Z,3.70
2022-10-06T10:42:47.147Z,3.67
2022-10-06T10:45:20.277Z,3.55
2022-10-06T10:47:50.219Z,3.38
2022-10-06T10:50:25.618Z,3.28
2022-10-06T10:52:58.939Z,3.45
2022-10-06T10:55:30.818Z,3.72
2022-10-06T10:58:05.438Z,3.65
2022-10-06T11:00:39.526Z,3.05
2022-10-06T11:03:10.020Z,3.25
2022-10-06T11:05:53.642Z,2.75
2022-10-06T11:08:29.563Z,2.85
2022-10-06T11:10:59.761Z,3.28
2022-10-06T11:13:33.803Z,2.95
2022-10-06T11:16:19.992Z,3.13
2022-10-06T11:19:09.364Z,2.85
2022-10-06T11:21:42.884Z,3.10
2022-10-06T11:24:18.315Z,3.00
2022-10-06T11:27:10.588Z,2.83
2022-10-06T11:29:48.851Z,2.95
2022-10-06T11:32:26.680Z,3.40
2022-10-06T11:34:54.838Z,3.33
2022-10-06T11:37:34.889Z,3.13
2022-10-06T11:40:24.765Z,2.95
2022-10-06T11:42:59.880Z,2.97
2022-10-06T11:45:35.552Z,2.83
2022-10-06T11:48:22.140Z,2.33
2022-10-06T11:50:53.069Z,2.67
2022-10-06T11:53:38.270Z,2.55
2022-10-06T11:56:36.719Z,2.85
2022-10-06T11:59:31.301Z,2.13
2022-10-06T12:02:00.746Z,3.08
2022-10-06T12:04:28.983Z,2.60
2022-10-06T12:07:01.493Z,2.70
2022-10-06T12:09:46.085Z,3.40
2022-10-06T12:13:05.795Z,3.05
2022-10-06T12:19:23.202Z,2.35
2022-10-06T12:21:59.164Z,2.58
2022-10-06T12:24:33.778Z,2.92
2022-10-06T12:27:26.236Z,2.47
2022-10-06T12:30:02.948Z,2.38
2022-10-06T12:32:50.129Z,2.70
2022-10-06T12:35:24.859Z,2.38
2022-10-06T12:37:54.699Z,2.40
2022-10-06T12:40:49.189Z,2.60
2022-10-06T12:43:57.412Z,2.55
2022-10-06T12:46:46.112Z,3.08
2022-10-06T12:49:37.064Z,2.90
2022-10-06T12:52:27.811Z,3.42
2022-10-06T12:55:08.433Z,2.60
2022-10-06T12:57:47.111Z,3.00
2022-10-06T13:03:01.399Z,3.45
2022-10-06T13:05:29.965Z,3.33
2022-10-06T13:07:59.453Z,2.95
2022-10-06T13:10:29.283Z,2.70
2022-10-06T13:12:58.885Z,3.30
2022-10-06T13:15:33.362Z,2.88
2022-10-06T13:18:11.408Z,3.03
2022-10-06T13:20:42.726Z,2.65
2022-10-06T13:23:23.936Z,2.58
2022-10-06T13:25:57.617Z,2.80
2022-10-06T13:28:31.934Z,2.70
2022-10-06T13:33:37.084Z,2.50
2022-10-06T13:36:05.363Z,3.03
2022-10-06T13:38:35.127Z,3.03
2022-10-06T13:41:22.659Z,2.70
2022-10-06T13:43:53.798Z,3.17
2022-10-06T13:46:24.657Z,2.90
2022-10-06T13:48:56.605Z,2.55
2022-10-06T13:51:29.755Z,3.08
2022-10-06T13:53:58.888Z,2.67
2022-10-06T13:59:16.843Z,2.55
2022-10-06T14:01:44.706Z,2.75
2022-10-06T14:04:14.865Z,2.80
2022-10-06T14:06:49.878Z,2.92
2022-10-06T14:09:23.568Z,3.00
2022-10-06T14:11:52.030Z,2.88
2022-10-06T14:14:19.822Z,2.88
2022-10-06T14:16:49.448Z,2.58
2022-10-06T14:19:36.618Z,2.55
2022-10-06T14:22:06.122Z,3.00
2022-10-06T14:24:37.255Z,2.50
2022-10-06T14:27:06.909Z,3.85
2022-10-06T14:29:37.787Z,3.15
2022-10-06T14:32:11.395Z,3.75
2022-10-06T14:34:47.718Z,3.05
2022-10-06T14:37:16.213Z,3.20
2022-10-06T14:39:44.929Z,3.20
2022-10-06T14:42:14.396Z,3.25
2022-10-06T14:44:43.157Z,2.88
2022-10-06T14:47:11.104Z,2.80
2022-10-06T14:49:40.683Z,2.65
2022-10-06T14:52:10.499Z,3.20
2022-10-06T14:54:38.303Z,3.38
2022-10-06T14:57:05.974Z,2.88
2022-10-06T14:59:33.683Z,2.90
2022-10-06T15:02:01.387Z,2.92
2022-10-06T15:04:29.264Z,2.67
2022-10-06T15:07:15.555Z,3.42
2022-10-06T15:09:43.681Z,3.00
2022-10-06T15:12:11.479Z,2.67
2022-10-06T15:14:39.837Z,3.08
2022-10-06T15:17:07.852Z,2.67
2022-10-06T15:19:35.516Z,2.80
2022-10-06T15:22:06.255Z,2.55
2022-10-06T15:24:33.950Z,2.90
2022-10-06T15:27:23.909Z,2.65
2022-10-06T15:29:52.568Z,2.70
2022-10-06T15:32:20.398Z,2.47
2022-10-06T15:34:48.110Z,2.75
2022-10-06T15:37:19.901Z,2.80
2022-10-06T15:39:47.887Z,2.90
2022-10-06T15:42:18.652Z,2.55
2022-10-06T15:44:46.326Z,2.33
2022-10-06T15:47:14.209Z,2.90
2022-10-06T15:49:41.928Z,2.67
2022-10-06T15:52:12.869Z,2.97
2022-10-06T15:54:42.360Z,2.58
2022-10-06T15:57:17.900Z,3.08
2022-10-06T15:59:48.253Z,2.70
2022-10-06T16:02:17.978Z,3.08
2022-10-06T16:04:57.547Z,2.92
2022-10-06T16:07:25.360Z,2.75
2022-10-06T16:09:54.434Z,3.42
2022-10-06T16:12:25.151Z,2.70
2022-10-06T16:14:53.218Z,2.60
2022-10-06T16:17:21.060Z,2.70
2022-10-06T16:19:48.864Z,3.78
2022-10-06T16:22:19.411Z,2.90
2022-10-06T16:24:47.163Z,3.25
2022-10-06T16:27:17.168Z,3.70
2022-10-06T16:29:44.817Z,3.50
2022-10-06T16:32:12.652Z,3.50
2022-10-06T16:34:40.363Z,3.35
2022-10-06T16:37:08.071Z,3.05
2022-10-06T16:39:35.729Z,3.33
2022-10-06T16:42:03.785Z,28.75
2022-10-06T16:44:32.886Z,4.80
2022-10-06T16:47:00.621Z,3.42
2022-10-06T16:49:28.368Z,3.55
2022-10-06T16:51:56.122Z,3.53
2022-10-06T16:54:23.886Z,4.13
2022-10-06T16:56:54.152Z,3.45
2022-10-06T16:59:23.491Z,3.78
2022-10-06T17:01:52.884Z,3.97
2022-10-06T17:04:22.268Z,3.67
2022-10-06T17:06:52.111Z,3.80
2022-10-06T17:09:21.164Z,4.03
2022-10-06T17:11:50.993Z,3.90
2022-10-06T17:14:19.668Z,4.45
2022-10-06T17:16:49.139Z,3.97
2022-10-06T17:19:20.249Z,3.90
2022-10-06T17:21:51.533Z,4.15
2022-10-06T17:24:22.568Z,4.10
2022-10-06T17:26:51.109Z,5.45
2022-10-06T17:29:21.464Z,4.63
2022-10-06T17:31:50.843Z,4.45
2022-10-06T17:34:22.484Z,7.03
2022-10-06T17:36:53.047Z,6.30
2022-10-06T17:39:22.880Z,5.05
2022-10-06T17:41:52.481Z,4.25
2022-10-06T17:44:22.518Z,8.85
2022-10-06T17:46:52.458Z,8.95
2022-10-06T17:49:22.572Z,5.63
2022-10-06T17:51:51.386Z,5.10
2022-10-06T17:54:21.090Z,5.40
2022-10-06T17:56:50.383Z,4.95
2022-10-06T17:59:21.068Z,6.05
2022-10-06T18:01:49.018Z,5.18
2022-10-06T18:04:16.808Z,5.63
2022-10-06T18:06:47.130Z,6.10
2022-10-06T18:09:15.620Z,6.13
2022-10-06T18:11:44.049Z,6.15
2022-10-06T18:14:13.667Z,5.63
2022-10-06T18:16:43.068Z,6.03
2022-10-06T18:19:13.183Z,6.30
2022-10-06T18:21:42.846Z,6.25
2022-10-06T18:24:15.211Z,6.35
2022-10-06T18:26:43.475Z,6.28
2022-10-06T18:29:12.423Z,9.30
2022-10-06T18:31:40.191Z,8.00
2022-10-06T18:36:56.541Z,5.97
2022-10-06T18:39:25.611Z,6.10
2022-10-06T18:41:53.637Z,6.15
2022-10-06T18:44:35.293Z,6.30
2022-10-06T18:47:20.264Z,6.75
2022-10-06T18:49:48.016Z,6.43
2022-10-06T18:52:16.062Z,6.40
2022-10-06T18:54:45.604Z,5.53
2022-10-06T18:57:13.304Z,5.93
2022-10-06T18:59:40.981Z,6.32
2022-10-06T19:02:08.838Z,7.72
2022-10-06T19:04:36.712Z,14.93
2022-10-06T19:07:04.444Z,7.03
2022-10-06T19:09:32.166Z,6.53
2022-10-06T19:12:01.852Z,7.43
2022-10-06T19:14:31.747Z,6.05
2022-10-06T19:17:02.141Z,6.15
2022-10-06T19:19:31.196Z,6.88
2022-10-06T19:22:00.619Z,7.80
2022-10-06T19:24:31.227Z,8.20
2022-10-06T19:26:59.486Z,7.82
2022-10-06T19:29:30.070Z,7.20
2022-10-06T19:31:59.637Z,7.72
2022-10-06T19:34:28.649Z,6.70
2022-10-06T19:36:58.193Z,7.10
2022-10-06T19:39:27.135Z,7.07
2022-10-06T19:42:12.589Z,6.55
2022-10-06T19:44:43.267Z,6.85
2022-10-06T19:47:14.647Z,7.68
2022-10-06T19:49:42.803Z,9.63
2022-10-06T19:52:12.434Z,7.20
2022-10-06T19:54:41.941Z,8.23
2022-10-06T19:57:11.483Z,7.10
2022-10-06T19:59:39.318Z,7.43
2022-10-06T20:02:10.126Z,6.53
2022-10-06T20:04:38.109Z,6.90
2022-10-06T20:07:06.042Z,6.47
2022-10-06T20:09:33.863Z,7.20
2022-10-06T20:12:02.305Z,6.57
2022-10-06T20:14:30.323Z,7.13
2022-10-06T20:16:58.503Z,7.38
2022-10-06T20:19:27.704Z,7.55
2022-10-06T20:21:55.520Z,6.47
2022-10-06T20:24:25.690Z,6.57
2022-10-06T20:26:54.646Z,6.20
2022-10-06T20:29:24.101Z,6.10
2022-10-06T20:31:53.826Z,6.15
2022-10-06T20:34:24.604Z,6.85
2022-10-06T20:36:56.155Z,5.88
2022-10-06T20:39:41.954Z,5.88
2022-10-06T20:42:15.014Z,6.50
2022-10-06T20:44:43.239Z,6.90
2022-10-06T20:47:11.163Z,6.53
2022-10-06T20:49:38.930Z,6.75
2022-10-06T20:52:09.831Z,6.70
2022-10-06T20:54:37.684Z,7.30
2022-10-06T20:57:09.663Z,8.15
2022-10-06T21:02:06.875Z,6.68
2022-10-06T21:04:34.945Z,7.38
2022-10-06T21:07:05.672Z,9.75
2022-10-06T21:09:34.730Z,9.15
2022-10-06T21:12:04.444Z,8.75
2022-10-06T21:14:33.962Z,7.80
2022-10-06T21:17:01.804Z,9.05
2022-10-06T21:19:29.932Z,10.95
2022-10-06T21:21:57.693Z,10.35
2022-10-06T21:24:25.408Z,11.20
2022-10-06T21:26:54.468Z,9.60
2022-10-06T21:29:22.577Z,9.45
2022-10-06T21:31:50.244Z,10.90
2022-10-06T21:34:17.918Z,10.05
2022-10-06T21:36:45.616Z,10.63
2022-10-06T21:39:14.250Z,10.18
2022-10-06T21:41:42.567Z,11.65
2022-10-06T21:44:13.156Z,11.05
2022-10-06T21:46:42.914Z,10.98
2022-10-06T21:49:12.514Z,11.52
2022-10-06T21:51:42.278Z,10.18
2022-10-06T21:54:11.037Z,11.00
2022-10-06T21:56:40.116Z,10.07
2022-10-06T21:59:08.425Z,9.57
2022-10-06T22:01:39.157Z,10.82
2022-10-06T22:04:07.373Z,10.55
2022-10-06T22:06:37.263Z,12.10
2022-10-06T22:09:06.538Z,10.63
2022-10-06T22:11:37.595Z,12.90
2022-10-06T22:14:07.224Z,11.18
2022-10-06T22:16:37.710Z,11.00
2022-10-06T22:19:07.451Z,11.82
2022-10-06T22:21:36.698Z,12.90
2022-10-06T22:24:06.376Z,12.32
2022-10-06T22:26:37.329Z,13.32
2022-10-06T22:29:06.295Z,12.30
2022-10-06T22:31:34.443Z,12.48
2022-10-06T22:34:05.289Z,13.48
2022-10-06T22:36:33.319Z,11.27
2022-10-06T22:39:01.561Z,12.52
2022-10-06T22:41:29.874Z,12.43
2022-10-06T22:43:59.272Z,12.43
2022-10-06T22:46:28.134Z,12.70
2022-10-06T22:48:56.221Z,12.18
2022-10-06T22:51:25.782Z,12.38
2022-10-06T22:53:57.652Z,11.95
2022-10-06T22:56:26.509Z,12.30
2022-10-06T22:58:54.223Z,11.95
2022-10-06T23:01:22.226Z,12.55
2022-10-06T23:03:50.971Z,13.20
2022-10-06T23:06:19.189Z,12.38
2022-10-06T23:08:48.286Z,12.63
2022-10-06T23:11:19.139Z,12.73
2022-10-06T23:13:48.385Z,12.15
2022-10-06T23:16:17.740Z,13.25
2022-10-06T23:18:46.207Z,12.77
2022-10-06T23:21:19.206Z,13.38
2022-10-06T23:23:49.215Z,12.43
2022-10-06T23:26:18.833Z,12.07
2022-10-06T23:28:47.712Z,13.27
2022-10-06T23:31:15.420Z,13.45
2022-10-06T23:33:43.116Z,12.70
2022-10-06T23:36:12.739Z,11.80
2022-10-06T23:38:42.116Z,12.15
2022-10-06T23:41:11.308Z,11.57
2022-10-06T23:43:39.036Z,12.45
2022-10-06T23:46:07.061Z,12.70
2022-10-06T23:48:35.051Z,11.32
2022-10-06T23:51:05.579Z,11.35
2022-10-06T23:53:33.375Z,14.73
2022-10-06T23:56:01.126Z,16.52
2022-10-06T23:58:30.299Z,13.98
